sensor_id;sensor_type;location;lat;lon;timestamp;P1;durP1;ratioP1;P2;durP2;ratioP2
44722;SDS011;30451;48.638;10.624;2024-02-04T00:00:45;1.42;;;0.95;;
44722;SDS011;30451;48.638;10.624;2024-02-04T00:03:11;1.40;;;0.77;;
44722;SDS011;30451;48.638;10.624;2024-02-04T00:05:37;1.30;;;0.80;;
44722;SDS011;30451;48.638;10.624;2024-02-04T00:08:03;1.33;;;0.90;;
44722;SDS011;30451;48.638;10.624;2024-02-04T00:10:29;1.33;;;0.93;;
44722;SDS011;30451;48.638;10.624;2024-02-04T00:12:54;1.42;;;0.90;;
44722;SDS011;30451;48.638;10.624;2024-02-04T00:15:20;1.63;;;1.08;;
44722;SDS011;30451;48.638;10.624;2024-02-04T00:17:46;1.40;;;0.90;;
44722;SDS011;30451;48.638;10.624;2024-02-04T00:20:12;1.17;;;0.90;;
44722;SDS011;30451;48.638;10.624;2024-02-04T00:22:37;1.63;;;1.00;;
44722;SDS011;30451;48.638;10.624;2024-02-04T00:25:04;1.40;;;0.98;;
44722;SDS011;30451;48.638;10.624;2024-02-04T00:27:30;1.40;;;0.85;;
44722;SDS011;30451;48.638;10.624;2024-02-04T00:29:57;1.50;;;0.85;;
44722;SDS011;30451;48.638;10.624;2024-02-04T00:32:23;1.20;;;0.90;;
44722;SDS011;30451;48.638;10.624;2024-02-04T00:34:50;1.70;;;1.08;;
44722;SDS011;30451;48.638;10.624;2024-02-04T00:37:15;1.40;;;1.00;;
44722;SDS011;30451;48.638;10.624;2024-02-04T00:39:41;2.45;;;0.90;;
44722;SDS011;30451;48.638;10.624;2024-02-04T00:42:07;1.55;;;0.82;;
44722;SDS011;30451;48.638;10.624;2024-02-04T00:44:32;1.58;;;1.05;;
44722;SDS011;30451;48.638;10.624;2024-02-04T00:46:58;1.63;;;0.90;;
44722;SDS011;30451;48.638;10.624;2024-02-04T00:49:23;1.38;;;0.80;;
44722;SDS011;30451;48.638;10.624;2024-02-04T00:51:51;1.23;;;0.82;;
44722;SDS011;30451;48.638;10.624;2024-02-04T00:54:17;1.02;;;0.70;;
44722;SDS011;30451;48.638;10.624;2024-02-04T00:56:42;1.50;;;0.90;;
44722;SDS011;30451;48.638;10.624;2024-02-04T00:59:08;1.45;;;0.80;;
44722;SDS011;30451;48.638;10.624;2024-02-04T01:01:33;0.90;;;0.80;;
44722;SDS011;30451;48.638;10.624;2024-02-04T01:03:59;1.20;;;0.85;;
44722;SDS011;30451;48.638;10.624;2024-02-04T01:06:25;1.70;;;0.93;;
44722;SDS011;30451;48.638;10.624;2024-02-04T01:08:50;1.30;;;0.80;;
44722;SDS011;30451;48.638;10.624;2024-02-04T01:11:16;1.80;;;1.00;;
44722;SDS011;30451;48.638;10.624;2024-02-04T01:13:42;1.15;;;0.90;;
44722;SDS011;30451;48.638;10.624;2024-02-04T01:16:07;1.45;;;0.80;;
44722;SDS011;30451;48.638;10.624;2024-02-04T01:18:33;1.38;;;0.80;;
44722;SDS011;30451;48.638;10.624;2024-02-04T01:20:58;1.02;;;0.70;;
44722;SDS011;30451;48.638;10.624;2024-02-04T01:23:25;1.35;;;1.00;;
44722;SDS011;30451;48.638;10.624;2024-02-04T01:25:51;1.00;;;0.75;;
44722;SDS011;30451;48.638;10.624;2024-02-04T01:28:16;1.52;;;0.80;;
44722;SDS011;30451;48.638;10.624;2024-02-04T01:30:42;1.17;;;0.90;;
44722;SDS011;30451;48.638;10.624;2024-02-04T01:33:13;1.42;;;0.90;;
44722;SDS011;30451;48.638;10.624;2024-02-04T01:35:38;1.42;;;0.85;;
44722;SDS011;30451;48.638;10.624;2024-02-04T01:38:04;1.38;;;0.90;;
44722;SDS011;30451;48.638;10.624;2024-02-04T01:40:30;1.63;;;0.90;;
44722;SDS011;30451;48.638;10.624;2024-02-04T01:42:55;1.38;;;0.70;;
44722;SDS011;30451;48.638;10.624;2024-02-04T01:45:21;1.50;;;0.80;;
44722;SDS011;30451;48.638;10.624;2024-02-04T01:47:47;0.60;;;0.60;;
44722;SDS011;30451;48.638;10.624;2024-02-04T01:50:13;1.52;;;0.80;;
44722;SDS011;30451;48.638;10.624;2024-02-04T01:52:40;1.10;;;0.80;;
44722;SDS011;30451;48.638;10.624;2024-02-04T01:55:08;1.17;;;0.80;;
44722;SDS011;30451;48.638;10.624;2024-02-04T01:57:34;1.05;;;0.90;;
44722;SDS011;30451;48.638;10.624;2024-02-04T02:00:00;1.33;;;0.80;;
44722;SDS011;30451;48.638;10.624;2024-02-04T02:02:27;1.10;;;0.70;;
44722;SDS011;30451;48.638;10.624;2024-02-04T02:04:53;1.23;;;0.77;;
44722;SDS011;30451;48.638;10.624;2024-02-04T02:07:18;1.20;;;0.90;;
44722;SDS011;30451;48.638;10.624;2024-02-04T02:09:49;1.33;;;0.80;;
44722;SDS011;30451;48.638;10.624;2024-02-04T02:12:19;1.80;;;0.80;;
44722;SDS011;30451;48.638;10.624;2024-02-04T02:15:32;1.42;;;0.90;;
44722;SDS011;30451;48.638;10.624;2024-02-04T02:17:55;1.10;;;0.77;;
44722;SDS011;30451;48.638;10.624;2024-02-04T02:23:52;1.67;;;0.93;;
44722;SDS011;30451;48.638;10.624;2024-02-04T02:26:19;1.58;;;0.80;;
44722;SDS011;30451;48.638;10.624;2024-02-04T02:28:46;1.20;;;0.90;;
44722;SDS011;30451;48.638;10.624;2024-02-04T02:31:11;1.05;;;0.80;;
44722;SDS011;30451;48.638;10.624;2024-02-04T02:33:37;1.42;;;0.93;;
44722;SDS011;30451;48.638;10.624;2024-02-04T02:36:02;0.85;;;0.75;;
44722;SDS011;30451;48.638;10.624;2024-02-04T02:38:46;1.17;;;0.80;;
44722;SDS011;30451;48.638;10.624;2024-02-04T02:41:22;1.13;;;0.80;;
44722;SDS011;30451;48.638;10.624;2024-02-04T02:43:48;1.33;;;0.82;;
44722;SDS011;30451;48.638;10.624;2024-02-04T02:46:18;1.02;;;0.80;;
44722;SDS011;30451;48.638;10.624;2024-02-04T02:48:44;0.98;;;0.77;;
44722;SDS011;30451;48.638;10.624;2024-02-04T02:51:09;1.05;;;0.80;;
44722;SDS011;30451;48.638;10.624;2024-02-04T02:53:35;1.02;;;0.75;;
44722;SDS011;30451;48.638;10.624;2024-02-04T02:56:01;1.35;;;0.80;;
44722;SDS011;30451;48.638;10.624;2024-02-04T02:58:26;0.82;;;0.70;;
44722;SDS011;30451;48.638;10.624;2024-02-04T03:00:52;1.25;;;0.80;;
44722;SDS011;30451;48.638;10.624;2024-02-04T03:03:17;1.23;;;0.80;;
44722;SDS011;30451;48.638;10.624;2024-02-04T03:05:43;1.10;;;0.80;;
44722;SDS011;30451;48.638;10.624;2024-02-04T03:08:09;1.05;;;0.70;;
44722;SDS011;30451;48.638;10.624;2024-02-04T03:10:34;1.13;;;0.80;;
44722;SDS011;30451;48.638;10.624;2024-02-04T03:13:00;1.00;;;0.73;;
44722;SDS011;30451;48.638;10.624;2024-02-04T03:15:27;1.27;;;0.80;;
44722;SDS011;30451;48.638;10.624;2024-02-04T03:17:52;0.93;;;0.68;;
44722;SDS011;30451;48.638;10.624;2024-02-04T03:20:18;1.25;;;0.70;;
44722;SDS011;30451;48.638;10.624;2024-02-04T03:22:44;0.70;;;0.70;;
44722;SDS011;30451;48.638;10.624;2024-02-04T03:25:11;1.08;;;0.70;;
44722;SDS011;30451;48.638;10.624;2024-02-04T03:27:36;0.70;;;0.68;;
44722;SDS011;30451;48.638;10.624;2024-02-04T03:30:04;0.60;;;0.60;;
44722;SDS011;30451;48.638;10.624;2024-02-04T03:32:30;0.93;;;0.70;;
44722;SDS011;30451;48.638;10.624;2024-02-04T03:34:59;1.13;;;0.68;;
44722;SDS011;30451;48.638;10.624;2024-02-04T03:37:25;1.23;;;0.73;;
44722;SDS011;30451;48.638;10.624;2024-02-04T03:39:51;0.93;;;0.70;;
44722;SDS011;30451;48.638;10.624;2024-02-04T03:42:16;0.75;;;0.70;;
44722;SDS011;30451;48.638;10.624;2024-02-04T03:44:43;0.60;;;0.60;;
44722;SDS011;30451;48.638;10.624;2024-02-04T03:47:09;1.02;;;0.75;;
44722;SDS011;30451;48.638;10.624;2024-02-04T03:49:34;1.00;;;0.70;;
44722;SDS011;30451;48.638;10.624;2024-02-04T03:52:00;1.20;;;0.80;;
44722;SDS011;30451;48.638;10.624;2024-02-04T03:54:25;0.70;;;0.50;;
44722;SDS011;30451;48.638;10.624;2024-02-04T03:56:51;1.00;;;0.70;;
44722;SDS011;30451;48.638;10.624;2024-02-04T03:59:17;0.70;;;0.70;;
44722;SDS011;30451;48.638;10.624;2024-02-04T04:01:48;1.25;;;0.85;;
44722;SDS011;30451;48.638;10.624;2024-02-04T04:04:15;0.80;;;0.80;;
44722;SDS011;30451;48.638;10.624;2024-02-04T04:06:42;0.98;;;0.70;;
44722;SDS011;30451;48.638;10.624;2024-02-04T04:09:09;0.80;;;0.70;;
44722;SDS011;30451;48.638;10.624;2024-02-04T04:11:35;1.00;;;0.70;;
44722;SDS011;30451;48.638;10.624;2024-02-04T04:14:01;0.77;;;0.70;;
44722;SDS011;30451;48.638;10.624;2024-02-04T04:16:27;0.60;;;0.60;;
44722;SDS011;30451;48.638;10.624;2024-02-04T04:18:53;0.75;;;0.70;;
44722;SDS011;30451;48.638;10.624;2024-02-04T04:21:19;0.70;;;0.68;;
44722;SDS011;30451;48.638;10.624;2024-02-04T04:23:45;0.90;;;0.63;;
44722;SDS011;30451;48.638;10.624;2024-02-04T04:26:11;0.73;;;0.60;;
44722;SDS011;30451;48.638;10.624;2024-02-04T04:28:37;1.10;;;0.70;;
44722;SDS011;30451;48.638;10.624;2024-02-04T04:31:03;1.00;;;0.60;;
44722;SDS011;30451;48.638;10.624;2024-02-04T04:33:29;0.68;;;0.60;;
44722;SDS011;30451;48.638;10.624;2024-02-04T04:35:55;0.65;;;0.57;;
44722;SDS011;30451;48.638;10.624;2024-02-04T04:38:20;0.70;;;0.60;;
44722;SDS011;30451;48.638;10.624;2024-02-04T04:40:46;0.60;;;0.60;;
44722;SDS011;30451;48.638;10.624;2024-02-04T04:43:12;0.47;;;0.47;;
44722;SDS011;30451;48.638;10.624;2024-02-04T04:45:38;0.50;;;0.50;;
44722;SDS011;30451;48.638;10.624;2024-02-04T04:48:05;0.60;;;0.60;;
44722;SDS011;30451;48.638;10.624;2024-02-04T04:50:32;1.10;;;0.80;;
44722;SDS011;30451;48.638;10.624;2024-02-04T04:52:58;0.73;;;0.70;;
44722;SDS011;30451;48.638;10.624;2024-02-04T04:55:24;0.52;;;0.52;;
44722;SDS011;30451;48.638;10.624;2024-02-04T04:57:49;0.70;;;0.60;;
44722;SDS011;30451;48.638;10.624;2024-02-04T05:00:17;0.60;;;0.60;;
44722;SDS011;30451;48.638;10.624;2024-02-04T05:02:43;0.70;;;0.60;;
44722;SDS011;30451;48.638;10.624;2024-02-04T05:05:12;0.57;;;0.57;;
44722;SDS011;30451;48.638;10.624;2024-02-04T05:07:37;0.50;;;0.50;;
44722;SDS011;30451;48.638;10.624;2024-02-04T05:10:03;0.45;;;0.45;;
44722;SDS011;30451;48.638;10.624;2024-02-04T05:12:29;0.52;;;0.50;;
44722;SDS011;30451;48.638;10.624;2024-02-04T05:14:55;0.60;;;0.57;;
44722;SDS011;30451;48.638;10.624;2024-02-04T05:17:21;1.17;;;0.70;;
44722;SDS011;30451;48.638;10.624;2024-02-04T05:19:47;0.50;;;0.50;;
44722;SDS011;30451;48.638;10.624;2024-02-04T05:22:12;0.50;;;0.50;;
44722;SDS011;30451;48.638;10.624;2024-02-04T05:24:38;0.52;;;0.50;;
44722;SDS011;30451;48.638;10.624;2024-02-04T05:27:04;0.50;;;0.50;;
44722;SDS011;30451;48.638;10.624;2024-02-04T05:29:30;0.95;;;0.75;;
44722;SDS011;30451;48.638;10.624;2024-02-04T05:31:56;0.50;;;0.50;;
44722;SDS011;30451;48.638;10.624;2024-02-04T05:34:22;0.60;;;0.60;;
44722;SDS011;30451;48.638;10.624;2024-02-04T05:36:47;0.60;;;0.60;;
44722;SDS011;30451;48.638;10.624;2024-02-04T05:39:13;0.65;;;0.60;;
44722;SDS011;30451;48.638;10.624;2024-02-04T05:41:41;0.50;;;0.50;;
44722;SDS011;30451;48.638;10.624;2024-02-04T05:44:07;0.85;;;0.60;;
44722;SDS011;30451;48.638;10.624;2024-02-04T05:46:35;0.60;;;0.60;;
44722;SDS011;30451;48.638;10.624;2024-02-04T05:49:01;0.57;;;0.57;;
44722;SDS011;30451;48.638;10.624;2024-02-04T05:51:27;0.50;;;0.50;;
44722;SDS011;30451;48.638;10.624;2024-02-04T05:53:53;0.60;;;0.55;;
44722;SDS011;30451;48.638;10.624;2024-02-04T05:56:19;0.57;;;0.45;;
44722;SDS011;30451;48.638;10.624;2024-02-04T05:58:45;0.63;;;0.60;;
44722;SDS011;30451;48.638;10.624;2024-02-04T06:01:11;0.52;;;0.50;;
44722;SDS011;30451;48.638;10.624;2024-02-04T06:03:36;0.50;;;0.50;;
44722;SDS011;30451;48.638;10.624;2024-02-04T06:06:02;0.60;;;0.60;;
44722;SDS011;30451;48.638;10.624;2024-02-04T06:08:28;0.68;;;0.68;;
44722;SDS011;30451;48.638;10.624;2024-02-04T06:10:54;0.60;;;0.60;;
44722;SDS011;30451;48.638;10.624;2024-02-04T06:13:19;0.82;;;0.50;;
44722;SDS011;30451;48.638;10.624;2024-02-04T06:15:45;0.65;;;0.50;;
44722;SDS011;30451;48.638;10.624;2024-02-04T06:18:11;0.60;;;0.60;;
44722;SDS011;30451;48.638;10.624;2024-02-04T06:20:36;0.60;;;0.60;;
44722;SDS011;30451;48.638;10.624;2024-02-04T06:23:02;0.60;;;0.60;;
44722;SDS011;30451;48.638;10.624;2024-02-04T06:25:27;0.50;;;0.50;;
44722;SDS011;30451;48.638;10.624;2024-02-04T06:27:53;0.50;;;0.50;;
44722;SDS011;30451;48.638;10.624;2024-02-04T06:30:19;0.60;;;0.55;;
44722;SDS011;30451;48.638;10.624;2024-02-04T06:32:44;0.43;;;0.43;;
44722;SDS011;30451;48.638;10.624;2024-02-04T06:35:12;0.63;;;0.50;;
44722;SDS011;30451;48.638;10.624;2024-02-04T06:37:38;0.75;;;0.60;;
44722;SDS011;30451;48.638;10.624;2024-02-04T06:40:03;0.50;;;0.50;;
44722;SDS011;30451;48.638;10.624;2024-02-04T06:42:29;0.50;;;0.50;;
44722;SDS011;30451;48.638;10.624;2024-02-04T06:44:55;0.50;;;0.50;;
44722;SDS011;30451;48.638;10.624;2024-02-04T06:47:20;1.85;;;0.60;;
44722;SDS011;30451;48.638;10.624;2024-02-04T06:49:46;0.65;;;0.65;;
44722;SDS011;30451;48.638;10.624;2024-02-04T06:52:12;0.70;;;0.55;;
44722;SDS011;30451;48.638;10.624;2024-02-04T06:54:37;0.50;;;0.50;;
44722;SDS011;30451;48.638;10.624;2024-02-04T06:57:03;0.60;;;0.55;;
44722;SDS011;30451;48.638;10.624;2024-02-04T06:59:29;0.50;;;0.50;;
44722;SDS011;30451;48.638;10.624;2024-02-04T07:01:54;0.80;;;0.65;;
44722;SDS011;30451;48.638;10.624;2024-02-04T07:04:20;0.50;;;0.50;;
44722;SDS011;30451;48.638;10.624;2024-02-04T07:06:52;0.50;;;0.50;;
44722;SDS011;30451;48.638;10.624;2024-02-04T07:09:18;0.60;;;0.50;;
44722;SDS011;30451;48.638;10.624;2024-02-04T07:11:43;0.50;;;0.50;;
44722;SDS011;30451;48.638;10.624;2024-02-04T07:14:09;1.55;;;0.80;;
44722;SDS011;30451;48.638;10.624;2024-02-04T07:16:35;0.50;;;0.50;;
44722;SDS011;30451;48.638;10.624;2024-02-04T07:19:01;1.08;;;0.73;;
44722;SDS011;30451;48.638;10.624;2024-02-04T07:21:27;1.20;;;0.68;;
44722;SDS011;30451;48.638;10.624;2024-02-04T07:23:53;0.60;;;0.60;;
44722;SDS011;30451;48.638;10.624;2024-02-04T07:26:19;0.80;;;0.60;;
44722;SDS011;30451;48.638;10.624;2024-02-04T07:28:44;0.73;;;0.60;;
44722;SDS011;30451;48.638;10.624;2024-02-04T07:31:10;0.95;;;0.60;;
44722;SDS011;30451;48.638;10.624;2024-02-04T07:33:36;1.13;;;0.77;;
44722;SDS011;30451;48.638;10.624;2024-02-04T07:36:01;0.60;;;0.60;;
44722;SDS011;30451;48.638;10.624;2024-02-04T07:38:27;0.60;;;0.50;;
44722;SDS011;30451;48.638;10.624;2024-02-04T07:40:53;0.98;;;0.70;;
44722;SDS011;30451;48.638;10.624;2024-02-04T07:43:20;0.70;;;0.60;;
44722;SDS011;30451;48.638;10.624;2024-02-04T07:45:46;0.50;;;0.50;;
44722;SDS011;30451;48.638;10.624;2024-02-04T07:48:11;0.85;;;0.65;;
44722;SDS011;30451;48.638;10.624;2024-02-04T07:50:37;0.60;;;0.60;;
44722;SDS011;30451;48.638;10.624;2024-02-04T07:53:03;0.55;;;0.45;;
44722;SDS011;30451;48.638;10.624;2024-02-04T07:55:28;0.50;;;0.50;;
44722;SDS011;30451;48.638;10.624;2024-02-04T07:57:54;0.50;;;0.50;;
44722;SDS011;30451;48.638;10.624;2024-02-04T08:00:20;0.80;;;0.60;;
44722;SDS011;30451;48.638;10.624;2024-02-04T08:02:46;0.55;;;0.55;;
44722;SDS011;30451;48.638;10.624;2024-02-04T08:05:12;0.70;;;0.70;;
44722;SDS011;30451;48.638;10.624;2024-02-04T08:07:38;1.80;;;0.60;;
44722;SDS011;30451;48.638;10.624;2024-02-04T08:10:03;0.90;;;0.65;;
44722;SDS011;30451;48.638;10.624;2024-02-04T08:12:30;0.88;;;0.55;;
44722;SDS011;30451;48.638;10.624;2024-02-04T08:14:55;0.50;;;0.50;;
44722;SDS011;30451;48.638;10.624;2024-02-04T08:17:21;0.63;;;0.60;;
44722;SDS011;30451;48.638;10.624;2024-02-04T08:19:46;0.68;;;0.60;;
44722;SDS011;30451;48.638;10.624;2024-02-04T08:22:12;0.70;;;0.60;;
44722;SDS011;30451;48.638;10.624;2024-02-04T08:24:38;0.85;;;0.77;;
44722;SDS011;30451;48.638;10.624;2024-02-04T08:27:04;2.03;;;0.70;;
44722;SDS011;30451;48.638;10.624;2024-02-04T08:29:29;0.75;;;0.52;;
44722;SDS011;30451;48.638;10.624;2024-02-04T08:31:55;0.60;;;0.60;;
44722;SDS011;30451;48.638;10.624;2024-02-04T08:34:21;0.60;;;0.60;;
44722;SDS011;30451;48.638;10.624;2024-02-04T08:36:49;0.57;;;0.57;;
44722;SDS011;30451;48.638;10.624;2024-02-04T08:39:15;0.52;;;0.50;;
44722;SDS011;30451;48.638;10.624;2024-02-04T08:41:41;0.50;;;0.50;;
44722;SDS011;30451;48.638;10.624;2024-02-04T08:44:06;0.60;;;0.60;;
44722;SDS011;30451;48.638;10.624;2024-02-04T08:46:32;0.55;;;0.50;;
44722;SDS011;30451;48.638;10.624;2024-02-04T08:48:58;0.75;;;0.60;;
44722;SDS011;30451;48.638;10.624;2024-02-04T08:51:23;0.52;;;0.50;;
44722;SDS011;30451;48.638;10.624;2024-02-04T08:53:49;0.50;;;0.50;;
44722;SDS011;30451;48.638;10.624;2024-02-04T08:56:14;0.75;;;0.60;;
44722;SDS011;30451;48.638;10.624;2024-02-04T08:58:40;1.05;;;0.80;;
44722;SDS011;30451;48.638;10.624;2024-02-04T09:01:06;0.55;;;0.55;;
44722;SDS011;30451;48.638;10.624;2024-02-04T09:03:32;0.70;;;0.50;;
44722;SDS011;30451;48.638;10.624;2024-02-04T09:05:58;0.75;;;0.60;;
44722;SDS011;30451;48.638;10.624;2024-02-04T09:08:23;0.63;;;0.55;;
44722;SDS011;30451;48.638;10.624;2024-02-04T09:10:49;0.90;;;0.65;;
44722;SDS011;30451;48.638;10.624;2024-02-04T09:13:15;1.38;;;0.70;;
44722;SDS011;30451;48.638;10.624;2024-02-04T09:15:40;0.95;;;0.60;;
44722;SDS011;30451;48.638;10.624;2024-02-04T09:18:07;0.65;;;0.60;;
44722;SDS011;30451;48.638;10.624;2024-02-04T09:20:32;0.50;;;0.50;;
44722;SDS011;30451;48.638;10.624;2024-02-04T09:22:58;0.70;;;0.60;;
44722;SDS011;30451;48.638;10.624;2024-02-04T09:25:27;0.90;;;0.63;;
44722;SDS011;30451;48.638;10.624;2024-02-04T09:27:52;0.60;;;0.53;;
44722;SDS011;30451;48.638;10.624;2024-02-04T09:30:18;0.57;;;0.50;;
44722;SDS011;30451;48.638;10.624;2024-02-04T09:32:43;0.63;;;0.50;;
44722;SDS011;30451;48.638;10.624;2024-02-04T09:35:09;0.45;;;0.43;;
44722;SDS011;30451;48.638;10.624;2024-02-04T09:37:35;0.50;;;0.50;;
44722;SDS011;30451;48.638;10.624;2024-02-04T09:40:01;0.52;;;0.52;;
44722;SDS011;30451;48.638;10.624;2024-02-04T09:42:26;0.50;;;0.50;;
44722;SDS011;30451;48.638;10.624;2024-02-04T09:44:53;1.58;;;0.52;;
44722;SDS011;30451;48.638;10.624;2024-02-04T09:47:19;0.80;;;0.60;;
44722;SDS011;30451;48.638;10.624;2024-02-04T09:49:45;0.73;;;0.60;;
44722;SDS011;30451;48.638;10.624;2024-02-04T09:52:12;1.95;;;0.70;;
44722;SDS011;30451;48.638;10.624;2024-02-04T09:55:11;0.60;;;0.50;;
44722;SDS011;30451;48.638;10.624;2024-02-04T09:57:31;0.88;;;0.60;;
44722;SDS011;30451;48.638;10.624;2024-02-04T09:59:59;1.05;;;0.50;;
44722;SDS011;30451;48.638;10.624;2024-02-04T10:02:27;0.52;;;0.50;;
44722;SDS011;30451;48.638;10.624;2024-02-04T10:04:52;0.50;;;0.50;;
44722;SDS011;30451;48.638;10.624;2024-02-04T10:07:18;0.85;;;0.50;;
44722;SDS011;30451;48.638;10.624;2024-02-04T10:09:44;0.47;;;0.47;;
44722;SDS011;30451;48.638;10.624;2024-02-04T10:12:10;0.80;;;0.60;;
44722;SDS011;30451;48.638;10.624;2024-02-04T10:14:35;0.55;;;0.55;;
44722;SDS011;30451;48.638;10.624;2024-02-04T10:17:01;0.63;;;0.50;;
44722;SDS011;30451;48.638;10.624;2024-02-04T10:19:27;0.80;;;0.63;;
44722;SDS011;30451;48.638;10.624;2024-02-04T10:22:02;1.40;;;0.60;;
44722;SDS011;30451;48.638;10.624;2024-02-04T10:24:28;0.60;;;0.60;;
44722;SDS011;30451;48.638;10.624;2024-02-04T10:26:55;0.43;;;0.43;;
44722;SDS011;30451;48.638;10.624;2024-02-04T10:29:22;0.85;;;0.60;;
44722;SDS011;30451;48.638;10.624;2024-02-04T10:31:48;1.45;;;0.50;;
44722;SDS011;30451;48.638;10.624;2024-02-04T10:34:14;0.60;;;0.50;;
44722;SDS011;30451;48.638;10.624;2024-02-04T10:36:39;0.75;;;0.60;;
44722;SDS011;30451;48.638;10.624;2024-02-04T10:39:05;1.02;;;0.65;;
44722;SDS011;30451;48.638;10.624;2024-02-04T10:41:31;1.27;;;0.60;;
44722;SDS011;30451;48.638;10.624;2024-02-04T10:43:59;0.82;;;0.60;;
44722;SDS011;30451;48.638;10.624;2024-02-04T10:46:29;1.02;;;0.60;;
44722;SDS011;30451;48.638;10.624;2024-02-04T10:48:59;0.50;;;0.50;;
44722;SDS011;30451;48.638;10.624;2024-02-04T10:51:28;0.40;;;0.40;;
44722;SDS011;30451;48.638;10.624;2024-02-04T10:53:56;0.50;;;0.50;;
44722;SDS011;30451;48.638;10.624;2024-02-04T10:56:37;0.40;;;0.40;;
44722;SDS011;30451;48.638;10.624;2024-02-04T10:59:11;0.65;;;0.60;;
44722;SDS011;30451;48.638;10.624;2024-02-04T11:01:40;0.65;;;0.55;;
44722;SDS011;30451;48.638;10.624;2024-02-04T11:04:10;0.50;;;0.50;;
44722;SDS011;30451;48.638;10.624;2024-02-04T11:06:37;3.13;;;0.65;;
44722;SDS011;30451;48.638;10.624;2024-02-04T11:09:05;0.43;;;0.43;;
44722;SDS011;30451;48.638;10.624;2024-02-04T11:11:33;0.80;;;0.60;;
44722;SDS011;30451;48.638;10.624;2024-02-04T11:14:00;0.70;;;0.60;;
44722;SDS011;30451;48.638;10.624;2024-02-04T11:27:50;1.33;;;0.77;;
44722;SDS011;30451;48.638;10.624;2024-02-04T11:30:16;0.93;;;0.75;;
44722;SDS011;30451;48.638;10.624;2024-02-04T11:32:42;1.42;;;1.00;;
44722;SDS011;30451;48.638;10.624;2024-02-04T11:35:08;1.75;;;1.20;;
44722;SDS011;30451;48.638;10.624;2024-02-04T11:37:36;1.70;;;1.20;;
44722;SDS011;30451;48.638;10.624;2024-02-04T11:40:03;2.58;;;1.40;;
44722;SDS011;30451;48.638;10.624;2024-02-04T11:45:10;2.85;;;1.77;;
44722;SDS011;30451;48.638;10.624;2024-02-04T11:50:04;3.25;;;2.47;;
44722;SDS011;30451;48.638;10.624;2024-02-04T11:52:30;3.88;;;2.67;;
44722;SDS011;30451;48.638;10.624;2024-02-04T11:54:56;4.47;;;3.13;;
44722;SDS011;30451;48.638;10.624;2024-02-04T11:57:22;4.20;;;3.40;;
44722;SDS011;30451;48.638;10.624;2024-02-04T11:59:48;5.28;;;4.00;;
44722;SDS011;30451;48.638;10.624;2024-02-04T12:02:16;5.85;;;4.30;;
44722;SDS011;30451;48.638;10.624;2024-02-04T12:04:45;5.60;;;5.07;;
44722;SDS011;30451;48.638;10.624;2024-02-04T12:07:11;5.93;;;5.32;;
44722;SDS011;30451;48.638;10.624;2024-02-04T12:09:38;6.93;;;5.97;;
44722;SDS011;30451;48.638;10.624;2024-02-04T12:12:04;7.65;;;6.78;;
44722;SDS011;30451;48.638;10.624;2024-02-04T12:14:30;7.82;;;6.93;;
44722;SDS011;30451;48.638;10.624;2024-02-04T12:16:56;8.60;;;7.70;;
44722;SDS011;30451;48.638;10.624;2024-02-04T12:19:22;8.50;;;7.43;;
44722;SDS011;30451;48.638;10.624;2024-02-04T12:21:48;8.18;;;7.38;;
44722;SDS011;30451;48.638;10.624;2024-02-04T12:24:14;8.15;;;7.35;;
44722;SDS011;30451;48.638;10.624;2024-02-04T12:26:40;8.90;;;8.00;;
44722;SDS011;30451;48.638;10.624;2024-02-04T12:29:06;8.32;;;7.43;;
44722;SDS011;30451;48.638;10.624;2024-02-04T12:31:32;8.75;;;7.35;;
44722;SDS011;30451;48.638;10.624;2024-02-04T12:33:59;8.35;;;7.55;;
44722;SDS011;30451;48.638;10.624;2024-02-04T12:36:31;8.65;;;7.72;;
44722;SDS011;30451;48.638;10.624;2024-02-04T12:38:57;8.20;;;7.38;;
44722;SDS011;30451;48.638;10.624;2024-02-04T12:41:25;8.27;;;7.47;;
44722;SDS011;30451;48.638;10.624;2024-02-04T12:43:52;8.13;;;7.32;;
44722;SDS011;30451;48.638;10.624;2024-02-04T12:46:21;8.30;;;7.35;;
44722;SDS011;30451;48.638;10.624;2024-02-04T12:48:51;8.05;;;6.90;;
44722;SDS011;30451;48.638;10.624;2024-02-04T12:51:24;7.70;;;6.90;;
44722;SDS011;30451;48.638;10.624;2024-02-04T12:54:11;7.40;;;6.70;;
44722;SDS011;30451;48.638;10.624;2024-02-04T12:59:29;7.00;;;6.30;;
44722;SDS011;30451;48.638;10.624;2024-02-04T13:01:59;8.68;;;6.28;;
44722;SDS011;30451;48.638;10.624;2024-02-04T13:04:32;7.30;;;6.15;;
44722;SDS011;30451;48.638;10.624;2024-02-04T13:06:59;6.28;;;5.53;;
44722;SDS011;30451;48.638;10.624;2024-02-04T13:09:25;6.82;;;5.75;;
44722;SDS011;30451;48.638;10.624;2024-02-04T13:11:50;6.05;;;5.45;;
44722;SDS011;30451;48.638;10.624;2024-02-04T13:14:16;6.05;;;5.30;;
44722;SDS011;30451;48.638;10.624;2024-02-04T13:16:42;6.10;;;5.50;;
44722;SDS011;30451;48.638;10.624;2024-02-04T13:19:08;6.38;;;5.38;;
44722;SDS011;30451;48.638;10.624;2024-02-04T13:21:33;6.32;;;5.65;;
44722;SDS011;30451;48.638;10.624;2024-02-04T13:23:59;6.03;;;5.43;;
44722;SDS011;30451;48.638;10.624;2024-02-04T13:26:25;5.93;;;5.32;;
44722;SDS011;30451;48.638;10.624;2024-02-04T13:28:50;6.03;;;5.30;;
44722;SDS011;30451;48.638;10.624;2024-02-04T13:31:16;5.95;;;5.18;;
44722;SDS011;30451;48.638;10.624;2024-02-04T13:33:42;6.13;;;5.53;;
44722;SDS011;30451;48.638;10.624;2024-02-04T13:36:07;5.72;;;5.13;;
44722;SDS011;30451;48.638;10.624;2024-02-04T13:38:34;5.97;;;5.18;;
44722;SDS011;30451;48.638;10.624;2024-02-04T13:41:00;6.20;;;5.55;;
44722;SDS011;30451;48.638;10.624;2024-02-04T13:43:31;6.05;;;5.18;;
44722;SDS011;30451;48.638;10.624;2024-02-04T13:45:57;5.65;;;5.05;;
44722;SDS011;30451;48.638;10.624;2024-02-04T13:48:24;5.90;;;5.18;;
44722;SDS011;30451;48.638;10.624;2024-02-04T13:50:51;5.18;;;4.60;;
44722;SDS011;30451;48.638;10.624;2024-02-04T13:53:19;5.65;;;4.90;;
44722;SDS011;30451;48.638;10.624;2024-02-04T13:55:44;4.82;;;4.25;;
44722;SDS011;30451;48.638;10.624;2024-02-04T13:58:10;5.20;;;4.63;;
44722;SDS011;30451;48.638;10.624;2024-02-04T14:00:36;5.30;;;4.80;;
44722;SDS011;30451;48.638;10.624;2024-02-04T14:03:02;5.15;;;4.50;;
44722;SDS011;30451;48.638;10.624;2024-02-04T14:05:28;4.93;;;4.43;;
44722;SDS011;30451;48.638;10.624;2024-02-04T14:07:54;5.35;;;4.20;;
44722;SDS011;30451;48.638;10.624;2024-02-04T14:10:19;5.38;;;4.35;;
44722;SDS011;30451;48.638;10.624;2024-02-04T14:12:45;5.07;;;4.30;;
44722;SDS011;30451;48.638;10.624;2024-02-04T14:15:11;5.18;;;4.22;;
44722;SDS011;30451;48.638;10.624;2024-02-04T14:17:37;4.78;;;4.30;;
44722;SDS011;30451;48.638;10.624;2024-02-04T14:20:04;5.45;;;4.53;;
44722;SDS011;30451;48.638;10.624;2024-02-04T14:22:31;5.13;;;4.20;;
44722;SDS011;30451;48.638;10.624;2024-02-04T14:24:57;5.30;;;4.28;;
44722;SDS011;30451;48.638;10.624;2024-02-04T14:27:23;5.07;;;3.90;;
44722;SDS011;30451;48.638;10.624;2024-02-04T14:29:48;4.05;;;3.60;;
44722;SDS011;30451;48.638;10.624;2024-02-04T14:32:14;4.03;;;3.30;;
44722;SDS011;30451;48.638;10.624;2024-02-04T14:34:40;3.92;;;3.25;;
44722;SDS011;30451;48.638;10.624;2024-02-04T14:37:06;4.00;;;3.30;;
44722;SDS011;30451;48.638;10.624;2024-02-04T14:39:33;4.65;;;3.40;;
44722;SDS011;30451;48.638;10.624;2024-02-04T14:41:58;3.90;;;3.50;;
44722;SDS011;30451;48.638;10.624;2024-02-04T14:44:24;4.13;;;3.25;;
44722;SDS011;30451;48.638;10.624;2024-02-04T14:46:50;4.97;;;3.90;;
44722;SDS011;30451;48.638;10.624;2024-02-04T14:49:16;4.22;;;3.60;;
44722;SDS011;30451;48.638;10.624;2024-02-04T14:51:41;4.40;;;3.50;;